createdAt,value
2022-08-16T00:01:59.861Z,33.45
2022-08-16T00:04:30.193Z,33.35
2022-08-16T00:06:59.086Z,31.98
2022-08-16T00:09:28.418Z,33.03
2022-08-16T00:11:57.785Z,31.48
2022-08-16T00:14:33.462Z,31.50
2022-08-16T00:17:18.533Z,32.45
2022-08-16T00:19:53.422Z,30.13
2022-08-16T00:22:27.982Z,29.50
2022-08-16T00:25:00.352Z,27.25
2022-08-16T00:27:30.770Z,26.17
2022-08-16T00:30:19.159Z,27.58
2022-08-16T00:32:52.228Z,28.60
2022-08-16T00:35:30.597Z,28.88
2022-08-16T00:38:40.743Z,27.48
2022-08-16T00:40:57.394Z,27.63
2022-08-16T00:43:42.725Z,27.05
2022-08-16T00:46:33.681Z,27.67
2022-08-16T00:49:17.304Z,26.20
2022-08-16T00:51:54.878Z,27.58
2022-08-16T00:54:29.765Z,26.75
2022-08-16T00:57:04.841Z,26.90
2022-08-16T00:59:49.309Z,25.30
2022-08-16T01:02:39.679Z,27.38
2022-08-16T01:05:23.900Z,26.92
2022-08-16T01:07:53.790Z,25.48
2022-08-16T01:10:32.002Z,26.08
2022-08-16T01:13:12.215Z,24.42
2022-08-16T01:15:52.880Z,26.92
2022-08-16T01:18:38.948Z,27.05
2022-08-16T01:21:36.237Z,26.90
2022-08-16T01:24:53.242Z,27.85
2022-08-16T01:27:23.973Z,26.27
2022-08-16T01:30:20.511Z,24.98
2022-08-16T01:35:47.568Z,26.30
2022-08-16T01:38:28.519Z,26.33
2022-08-16T01:41:04.618Z,25.60
2022-08-16T01:43:36.158Z,24.83
2022-08-16T01:46:29.977Z,26.77
2022-08-16T01:49:10.287Z,25.13
2022-08-16T01:51:43.643Z,26.77
2022-08-16T01:54:15.489Z,24.53
2022-08-16T01:56:47.841Z,26.17
2022-08-16T01:59:18.876Z,26.00
2022-08-16T02:01:59.617Z,26.17
2022-08-16T02:04:49.372Z,25.85
2022-08-16T02:07:24.753Z,26.00
2022-08-16T02:09:58.796Z,24.85
2022-08-16T02:12:43.557Z,25.35
2022-08-16T02:15:25.173Z,25.63
2022-08-16T02:18:01.608Z,27.33
2022-08-16T02:20:42.446Z,26.00
2022-08-16T02:23:12.877Z,26.08
2022-08-16T02:25:50.791Z,26.63
2022-08-16T02:28:26.206Z,29.55
2022-08-16T02:30:59.549Z,27.92
2022-08-16T02:33:43.659Z,30.02
2022-08-16T02:36:47.605Z,27.73
2022-08-16T02:39:12.313Z,29.10
2022-08-16T02:41:53.187Z,27.95
2022-08-16T02:44:27.026Z,28.60
2022-08-16T02:46:57.961Z,26.70
2022-08-16T02:49:58.266Z,27.52
2022-08-16T02:52:24.667Z,26.38
2022-08-16T02:54:55.471Z,25.13
2022-08-16T02:57:24.612Z,26.95
2022-08-16T03:00:03.814Z,26.35
2022-08-16T03:02:57.282Z,28.15
2022-08-16T03:05:31.012Z,26.42
2022-08-16T03:08:05.194Z,27.40
2022-08-16T03:10:59.468Z,26.45
2022-08-16T03:13:31.525Z,27.42
2022-08-16T03:16:38.526Z,27.20
2022-08-16T03:19:16.503Z,28.08
2022-08-16T03:21:51.791Z,26.33
2022-08-16T03:24:29.919Z,25.48
2022-08-16T03:27:10.234Z,27.35
2022-08-16T03:29:54.531Z,29.10
2022-08-16T03:32:24.879Z,28.77
2022-08-16T03:34:54.822Z,28.73
2022-08-16T03:37:23.649Z,29.10
2022-08-16T03:39:56.359Z,29.45
2022-08-16T03:42:28.694Z,28.48
2022-08-16T03:45:03.809Z,28.48
2022-08-16T03:47:36.890Z,28.00
2022-08-16T03:50:25.389Z,27.15
2022-08-16T03:53:05.901Z,29.50
2022-08-16T03:55:45.193Z,28.38
2022-08-16T03:58:18.521Z,29.80
2022-08-16T04:00:56.946Z,28.40
2022-08-16T04:03:50.699Z,30.05
2022-08-16T04:06:35.546Z,30.33
2022-08-16T04:09:07.552Z,32.20
2022-08-16T04:11:43.069Z,31.80
2022-08-16T04:14:32.526Z,32.00
2022-08-16T04:17:07.364Z,32.22
2022-08-16T04:19:45.371Z,31.27
2022-08-16T04:22:17.399Z,30.13
2022-08-16T04:24:54.464Z,31.80
2022-08-16T04:27:24.446Z,33.95
2022-08-16T04:30:03.396Z,34.28
2022-08-16T04:32:32.275Z,35.00
2022-08-16T04:35:08.492Z,34.83
2022-08-16T04:37:42.238Z,33.38
2022-08-16T04:40:21.679Z,33.58
2022-08-16T04:42:50.633Z,33.20
2022-08-16T04:45:36.705Z,33.70
2022-08-16T04:48:06.570Z,34.15
2022-08-16T04:50:37.877Z,35.00
2022-08-16T04:53:12.008Z,34.75
2022-08-16T04:55:40.174Z,36.45
2022-08-16T04:58:45.325Z,37.10
2022-08-16T05:00:58.188Z,37.45
2022-08-16T05:03:27.222Z,37.85
2022-08-16T05:06:04.790Z,37.63
2022-08-16T05:08:34.542Z,38.35
2022-08-16T05:11:08.314Z,37.38
2022-08-16T05:13:42.326Z,40.13
2022-08-16T05:16:20.241Z,37.90
2022-08-16T05:18:53.035Z,38.38
2022-08-16T05:21:24.346Z,35.90
2022-08-16T05:24:00.362Z,37.72
2022-08-16T05:26:32.926Z,38.33
2022-08-16T05:29:04.835Z,38.00
2022-08-16T05:31:35.123Z,39.08
2022-08-16T05:34:05.601Z,36.90
2022-08-16T05:36:54.053Z,38.35
2022-08-16T05:39:22.677Z,38.28
2022-08-16T05:41:53.614Z,39.67
2022-08-16T05:44:28.651Z,38.92
2022-08-16T05:47:00.543Z,39.45
2022-08-16T05:49:39.906Z,36.80
2022-08-16T05:52:13.492Z,37.42
2022-08-16T05:54:47.440Z,36.15
2022-08-16T05:57:17.662Z,36.25
2022-08-16T05:59:50.594Z,36.38
2022-08-16T06:02:33.459Z,36.72
2022-08-16T06:05:02.889Z,38.10
2022-08-16T06:07:34.061Z,36.72
2022-08-16T06:10:03.345Z,36.70
2022-08-16T06:12:32.718Z,37.35
2022-08-16T06:15:09.656Z,37.65
2022-08-16T06:17:43.854Z,36.55
2022-08-16T06:20:18.442Z,37.57
2022-08-16T06:23:03.563Z,36.30
2022-08-16T06:25:39.013Z,37.28
2022-08-16T06:28:17.199Z,35.38
2022-08-16T06:31:01.423Z,37.10
2022-08-16T06:33:30.398Z,35.20
2022-08-16T06:36:14.215Z,36.53
2022-08-16T06:38:52.301Z,35.72
2022-08-16T06:41:27.443Z,33.40
2022-08-16T06:43:57.063Z,36.15
2022-08-16T06:46:34.337Z,33.78
2022-08-16T06:49:05.185Z,33.05
2022-08-16T06:51:45.857Z,34.35
2022-08-16T06:54:19.265Z,32.15
2022-08-16T06:56:55.721Z,31.65
2022-08-16T06:59:25.696Z,29.70
2022-08-16T07:01:58.035Z,28.75
2022-08-16T07:04:32.570Z,28.63
2022-08-16T07:07:02.960Z,27.10
2022-08-16T07:09:35.348Z,27.10
2022-08-16T07:12:05.971Z,27.35
2022-08-16T07:14:35.867Z,25.73
2022-08-16T07:17:08.121Z,26.65
2022-08-16T07:20:29.609Z,25.80
2022-08-16T07:22:37.070Z,26.67
2022-08-16T07:25:16.893Z,24.98
2022-08-16T07:27:47.127Z,26.48
2022-08-16T07:30:38.155Z,27.35
2022-08-16T07:33:10.653Z,24.67
2022-08-16T07:35:49.766Z,25.17
2022-08-16T07:38:19.769Z,25.77
2022-08-16T07:43:44.053Z,24.13
2022-08-16T07:46:39.344Z,23.75
2022-08-16T07:49:18.995Z,24.63
2022-08-16T07:51:54.531Z,25.02
2022-08-16T07:54:39.372Z,22.92
2022-08-16T07:57:21.138Z,26.80
2022-08-16T08:00:18.579Z,24.00
2022-08-16T08:02:54.802Z,22.27
2022-08-16T08:05:35.758Z,22.50
2022-08-16T08:08:51.731Z,24.20
2022-08-16T08:11:10.628Z,23.47
2022-08-16T08:13:42.987Z,21.13
2022-08-16T08:16:30.603Z,21.95
2022-08-16T08:19:10.585Z,23.02
2022-08-16T08:22:01.035Z,23.77
2022-08-16T08:24:34.996Z,21.92
2022-08-16T08:27:09.244Z,22.48
2022-08-16T08:30:48.815Z,23.25
2022-08-16T08:32:51.205Z,23.95
2022-08-16T08:35:33.393Z,25.08
2022-08-16T08:38:06.604Z,27.30
2022-08-16T08:40:50.362Z,26.50
2022-08-16T08:43:27.609Z,27.85
2022-08-16T08:45:58.954Z,28.23
2022-08-16T08:48:35.712Z,27.33
2022-08-16T08:51:09.117Z,29.23
2022-08-16T08:53:40.157Z,28.10
2022-08-16T08:56:23.529Z,27.08
2022-08-16T09:02:06.834Z,26.80
2022-08-16T09:05:18.940Z,28.00
2022-08-16T09:13:48.409Z,24.73
2022-08-16T09:17:01.384Z,27.00
2022-08-16T09:19:32.328Z,23.30
2022-08-16T09:22:19.739Z,24.60
2022-08-16T09:25:00.714Z,23.75
2022-08-16T09:30:45.014Z,23.52
2022-08-16T09:33:19.722Z,24.52
2022-08-16T09:35:53.855Z,20.58
2022-08-16T09:38:32.507Z,22.20
2022-08-16T09:41:05.757Z,23.83
2022-08-16T09:43:59.904Z,24.60
2022-08-16T09:46:48.377Z,24.40
2022-08-16T09:49:23.845Z,23.02
2022-08-16T09:55:00.137Z,24.63
2022-08-16T09:57:34.351Z,22.60
2022-08-16T10:00:44.188Z,23.30
2022-08-16T10:03:14.939Z,24.92
2022-08-16T10:05:46.477Z,22.75
2022-08-16T10:08:26.944Z,25.27
2022-08-16T10:11:24.871Z,24.80
2022-08-16T10:13:54.813Z,23.42
2022-08-16T10:22:17.479Z,22.98
2022-08-16T10:38:06.639Z,23.98
2022-08-16T10:41:27.034Z,21.40
2022-08-16T10:52:01.360Z,23.83
2022-08-16T11:17:10.758Z,23.67
2022-08-16T11:23:15.837Z,22.92
2022-08-16T11:41:26.002Z,24.40
2022-08-16T11:54:05.056Z,20.77
2022-08-16T11:57:09.343Z,19.45
2022-08-16T12:00:00.819Z,22.05
2022-08-16T12:03:48.868Z,24.73
2022-08-16T12:06:25.401Z,19.83
2022-08-16T12:09:03.555Z,20.40
2022-08-16T12:11:37.956Z,22.15
2022-08-16T12:14:11.787Z,18.25
2022-08-16T12:16:48.603Z,20.63
2022-08-16T12:19:35.604Z,20.55
2022-08-16T12:22:19.772Z,21.17
2022-08-16T12:24:52.103Z,23.65
2022-08-16T12:27:25.385Z,18.13
2022-08-16T12:29:58.536Z,21.20
2022-08-16T12:32:42.391Z,18.77
2022-08-16T12:35:20.683Z,21.10
2022-08-16T12:38:35.787Z,19.73
2022-08-16T12:41:01.706Z,18.20
2022-08-16T12:43:45.357Z,18.55
2022-08-16T12:46:17.901Z,21.52
2022-08-16T12:49:00.532Z,16.92
2022-08-16T12:51:59.804Z,16.75
2022-08-16T12:54:37.719Z,18.60
2022-08-16T12:57:20.013Z,15.95
2022-08-16T12:59:52.724Z,17.98
2022-08-16T13:02:44.271Z,17.33
2022-08-16T13:05:19.650Z,20.20
2022-08-16T13:08:05.476Z,17.75
2022-08-16T13:10:40.793Z,20.90
2022-08-16T13:13:29.503Z,18.83
2022-08-16T13:16:15.121Z,20.85
2022-08-16T13:18:57.622Z,19.38
2022-08-16T13:21:35.520Z,19.50
2022-08-16T13:24:20.900Z,17.65
2022-08-16T13:27:17.483Z,20.20
2022-08-16T13:32:58.754Z,19.08
2022-08-16T13:35:35.723Z,19.23
2022-08-16T13:38:25.204Z,16.58
2022-08-16T13:40:58.097Z,18.35
2022-08-16T13:43:34.325Z,20.23
2022-08-16T13:46:17.759Z,19.65
2022-08-16T13:48:48.518Z,17.42
2022-08-16T13:51:29.184Z,16.80
2022-08-16T13:54:09.227Z,15.05
2022-08-16T13:56:40.901Z,12.52
2022-08-16T13:59:20.394Z,12.52
2022-08-16T14:02:11.385Z,9.18
2022-08-16T14:04:44.406Z,9.15
2022-08-16T14:07:20.168Z,9.43
2022-08-16T14:09:55.073Z,9.23
2022-08-16T14:12:39.117Z,7.75
2022-08-16T14:15:32.113Z,7.22
2022-08-16T14:18:20.354Z,7.90
2022-08-16T14:20:51.295Z,7.63
2022-08-16T14:23:38.280Z,6.82
2022-08-16T14:26:12.916Z,7.18
2022-08-16T14:34:44.722Z,6.85
2022-08-16T14:37:18.496Z,8.07
2022-08-16T14:42:46.515Z,7.25
2022-08-16T14:48:28.485Z,7.32
2022-08-16T14:51:00.711Z,7.75
2022-08-16T14:56:42.537Z,6.97
2022-08-16T15:02:05.158Z,6.63
2022-08-16T15:04:40.352Z,6.90
2022-08-16T15:07:22.775Z,7.63
2022-08-16T15:10:00.451Z,7.35
2022-08-16T15:12:36.639Z,7.90
2022-08-16T15:15:16.442Z,6.75
2022-08-16T15:17:53.864Z,7.95
2022-08-16T15:23:29.550Z,7.00
2022-08-16T15:26:02.777Z,7.22
2022-08-16T15:28:47.181Z,6.55
2022-08-16T16:34:26.564Z,7.20
2022-08-16T16:52:14.320Z,7.35
2022-08-16T16:55:16.485Z,8.40
2022-08-16T16:58:03.486Z,8.65
2022-08-16T17:00:37.664Z,8.80
2022-08-16T17:03:17.092Z,10.27
2022-08-16T17:05:56.978Z,9.07
2022-08-16T17:08:40.627Z,9.93
2022-08-16T17:11:22.382Z,11.05
2022-08-16T17:13:52.354Z,11.50
2022-08-16T17:16:23.482Z,13.20
2022-08-16T17:25:14.739Z,17.10
2022-08-16T17:27:50.725Z,13.27
2022-08-16T17:30:45.332Z,13.48
2022-08-16T17:33:16.123Z,12.80
2022-08-16T17:35:55.231Z,13.27
2022-08-16T17:38:33.093Z,12.30
2022-08-16T17:39:28.037Z,15.30
2022-08-16T17:41:15.131Z,11.80
2022-08-16T17:44:03.901Z,12.20
2022-08-16T17:46:50.543Z,12.00
2022-08-16T17:49:35.375Z,12.13
2022-08-16T17:52:06.817Z,11.57
2022-08-16T17:54:36.359Z,10.55
2022-08-16T17:57:21.775Z,9.45
2022-08-16T17:59:54.032Z,9.02
2022-08-16T18:02:44.439Z,8.77
2022-08-16T18:05:22.592Z,8.57
2022-08-16T18:07:57.408Z,8.30
2022-08-16T18:10:33.451Z,9.15
2022-08-16T18:13:18.741Z,8.63
2022-08-16T18:15:54.176Z,9.48
2022-08-16T18:18:27.681Z,8.38
2022-08-16T18:21:22.673Z,8.25
2022-08-16T18:24:01.192Z,8.38
2022-08-16T18:26:52.782Z,8.15
2022-08-16T18:29:46.410Z,8.88
2022-08-16T18:32:24.978Z,9.55
2022-08-16T18:35:12.980Z,8.20
2022-08-16T18:44:25.545Z,8.35
2022-08-16T18:47:39.362Z,8.52
2022-08-16T18:51:03.255Z,9.45
2022-08-16T19:02:58.743Z,8.27
2022-08-16T19:08:43.826Z,8.43
2022-08-16T19:11:35.406Z,8.20
2022-08-16T19:17:32.058Z,7.78
2022-08-16T19:23:37.183Z,8.30
2022-08-16T19:26:33.776Z,8.30
2022-08-16T19:32:36.992Z,8.52
2022-08-16T19:35:31.591Z,7.88
2022-08-16T19:41:39.001Z,10.77
2022-08-16T20:10:53.254Z,18.80
2022-08-16T20:19:14.952Z,13.50
2022-08-16T20:22:21.599Z,15.55
2022-08-16T20:25:10.991Z,13.55
2022-08-16T20:55:36.082Z,12.88
2022-08-16T20:58:05.705Z,13.70
2022-08-16T21:00:36.587Z,15.20
2022-08-16T21:03:10.020Z,13.88
2022-08-16T21:05:43.532Z,14.85
2022-08-16T21:08:49.998Z,16.60
2022-08-16T21:11:09.760Z,19.67
2022-08-16T21:13:42.909Z,18.48
2022-08-16T21:16:15.730Z,19.38
2022-08-16T21:18:44.765Z,19.08
2022-08-16T21:21:13.520Z,19.40
2022-08-16T21:23:43.183Z,19.55
2022-08-16T21:26:15.390Z,20.17
2022-08-16T21:28:46.346Z,21.63
2022-08-16T21:31:19.344Z,20.92
2022-08-16T21:33:55.301Z,21.73
2022-08-16T21:36:34.821Z,23.70
2022-08-16T21:39:07.003Z,23.20
2022-08-16T21:41:39.518Z,22.65
2022-08-16T21:44:12.016Z,23.50
2022-08-16T21:46:43.672Z,26.65
2022-08-16T21:49:12.932Z,25.98
2022-08-16T21:51:42.275Z,24.98
2022-08-16T21:54:11.705Z,23.70
2022-08-16T21:56:40.535Z,25.40
2022-08-16T21:59:12.136Z,26.65
2022-08-16T22:01:44.920Z,29.50
2022-08-16T22:04:38.104Z,29.75
2022-08-16T22:07:10.328Z,29.95
2022-08-16T22:09:41.262Z,30.77
2022-08-16T22:12:24.085Z,31.63
2022-08-16T22:14:53.031Z,30.58
2022-08-16T22:17:23.249Z,31.42
2022-08-16T22:19:54.535Z,31.73
2022-08-16T22:22:35.956Z,32.00
2022-08-16T22:25:08.155Z,33.70
2022-08-16T22:27:37.804Z,31.40
2022-08-16T22:30:08.707Z,33.58
2022-08-16T22:32:42.417Z,30.52
2022-08-16T22:35:14.479Z,32.60
2022-08-16T22:38:43.944Z,33.58
2022-08-16T22:40:35.390Z,34.33
2022-08-16T22:43:05.077Z,33.75
2022-08-16T22:45:34.500Z,33.80
2022-08-16T22:48:06.491Z,32.35
2022-08-16T22:50:38.065Z,34.25
2022-08-16T22:53:11.257Z,32.88
2022-08-16T22:55:57.282Z,33.33
2022-08-16T22:58:34.141Z,33.00
2022-08-16T23:01:06.534Z,33.58
2022-08-16T23:03:38.255Z,32.15
2022-08-16T23:06:09.371Z,31.95
2022-08-16T23:08:41.584Z,33.78
2022-08-16T23:11:14.242Z,35.03
2022-08-16T23:13:53.266Z,33.83
2022-08-16T23:16:32.549Z,33.10
2022-08-16T23:19:07.203Z,32.22
2022-08-16T23:21:38.275Z,34.13
2022-08-16T23:24:10.516Z,31.77
2022-08-16T23:26:47.539Z,31.35
2022-08-16T23:29:24.303Z,31.38
2022-08-16T23:32:00.849Z,31.17
2022-08-16T23:34:31.678Z,33.00
2022-08-16T23:37:00.258Z,32.03
2022-08-16T23:39:29.473Z,32.25
2022-08-16T23:42:02.171Z,33.17
2022-08-16T23:44:57.077Z,34.33
2022-08-16T23:47:24.387Z,31.75
2022-08-16T23:50:00.428Z,30.77
2022-08-16T23:52:45.192Z,30.50
2022-08-16T23:55:22.093Z,31.50
2022-08-16T23:57:50.850Z,32.22
